Time,TemperatureF,DewpointF,PressureIn,WindDirection,WindDirectionDegrees,WindSpeedMPH,WindSpeedGustMPH,Humidity,HourlyPrecipIn,Conditions,Clouds,dailyrainin,SoftwareType,DateUTC
2013-05-22 00:01:00,72.0,63.6,29.78,South,183,1.0,13.0,75,0.00,,,0.00,Wunderground v.1.15,2013-05-22 04:01:00,
2013-05-22 00:02:00,71.9,63.5,29.79,South,184,0.0,13.0,75,0.00,,,0.00,Wunderground v.1.15,2013-05-22 04:02:00,
2013-05-22 00:05:00,71.8,63.8,29.78,WSW,247,0.0,13.0,76,0.00,,,0.00,Wunderground v.1.15,2013-05-22 04:05:00,
2013-05-22 00:10:00,71.8,64.2,29.78,SW,222,1.0,13.0,77,0.00,,,0.00,Wunderground v.1.15,2013-05-22 04:10:00,
2013-05-22 00:15:00,71.8,64.6,29.78,WSW,240,1.0,13.0,78,0.00,,,0.00,Wunderground v.1.15,2013-05-22 04:15:00,
2013-05-22 00:17:00,71.8,64.9,29.78,SW,214,1.0,13.0,79,0.00,,,0.00,Wunderground v.1.15,2013-05-22 04:17:00,
2013-05-22 00:22:00,71.7,65.2,29.78,South,178,1.0,13.0,80,0.00,,,0.00,Wunderground v.1.15,2013-05-22 04:22:00,
2013-05-22 00:27:00,71.5,65.4,29.78,North,354,0.0,13.0,81,0.00,,,0.00,Wunderground v.1.15,2013-05-22 04:27:00,
2013-05-22 00:32:00,70.7,64.6,29.80,NNW,336,1.0,13.0,81,0.00,,,0.00,Wunderground v.1.15,2013-05-22 04:32:00,
2013-05-22 00:37:00,68.8,61.3,29.80,NNW,337,3.0,13.0,77,0.00,,,0.00,Wunderground v.1.15,2013-05-22 04:37:00,
2013-05-22 00:43:00,66.6,60.9,29.82,NNW,328,4.0,13.0,82,1.19,,,0.06,Wunderground v.1.15,2013-05-22 04:43:00,
2013-05-22 00:48:00,64.0,60.1,29.81,WNW,293,5.0,13.0,87,0.16,,,0.10,Wunderground v.1.15,2013-05-22 04:48:00,
2013-05-22 00:53:00,62.8,59.8,29.84,South,179,5.0,13.0,90,1.04,,,0.20,Wunderground v.1.15,2013-05-22 04:53:00,
2013-05-22 00:58:00,62.1,59.7,29.85,West,281,3.0,13.0,92,3.84,,,0.52,Wunderground v.1.15,2013-05-22 04:58:00,
2013-05-22 01:03:00,61.7,59.7,29.84,West,266,2.0,13.0,93,1.46,,,0.72,Wunderground v.1.15,2013-05-22 05:03:00,
2013-05-22 01:09:00,61.4,59.7,29.84,SSW,213,2.0,13.0,94,0.45,,,0.79,Wunderground v.1.15,2013-05-22 05:09:00,
2013-05-22 01:14:00,61.3,59.9,29.84,WSW,246,2.0,13.0,95,0.24,,,0.82,Wunderground v.1.15,2013-05-22 05:14:00,
2013-05-22 01:20:00,61.4,60.2,29.83,WSW,245,2.0,2.0,96,0.49,,,0.88,Wunderground v.1.15,2013-05-22 05:20:00,
2013-05-22 01:26:00,61.4,60.2,29.83,SE,128,1.0,8.0,96,0.13,,,0.90,Wunderground v.1.15,2013-05-22 05:26:00,
2013-05-22 01:32:00,61.4,60.2,29.82,SE,125,1.0,8.0,96,0.07,,,0.91,Wunderground v.1.15,2013-05-22 05:32:00,
2013-05-22 01:37:00,61.3,60.2,29.82,SE,126,0.0,8.0,96,0.07,,,0.91,Wunderground v.1.15,2013-05-22 05:37:00,
2013-05-22 01:43:00,61.3,60.2,29.81,SE,128,0.0,8.0,96,0.15,,,0.93,Wunderground v.1.15,2013-05-22 05:43:00,
2013-05-22 01:49:00,61.3,60.2,29.81,SE,124,0.0,8.0,96,0.08,,,0.93,Wunderground v.1.15,2013-05-22 05:49:00,
2013-05-22 01:55:00,61.3,60.4,29.80,East,96,1.0,8.0,97,0.05,,,0.94,Wunderground v.1.15,2013-05-22 05:55:00,
2013-05-22 02:01:00,61.3,60.4,29.81,WNW,283,1.0,8.0,97,0.05,,,0.94,Wunderground v.1.15,2013-05-22 06:01:00,
2013-05-22 02:07:00,61.3,60.4,29.80,ENE,57,1.0,8.0,97,0.04,,,0.94,Wunderground v.1.15,2013-05-22 06:07:00,
2013-05-22 02:12:00,61.3,60.4,29.80,ENE,71,1.0,8.0,97,0.00,,,0.94,Wunderground v.1.15,2013-05-22 06:12:00,
2013-05-22 02:18:00,61.3,60.4,29.81,West,260,0.0,8.0,97,0.00,,,0.94,Wunderground v.1.15,2013-05-22 06:18:00,
2013-05-22 02:24:00,61.3,60.4,29.81,WSW,255,0.0,8.0,97,0.24,,,0.98,Wunderground v.1.15,2013-05-22 06:24:00,
2013-05-22 02:30:00,61.2,60.3,29.80,ENE,65,0.0,8.0,97,0.09,,,0.98,Wunderground v.1.15,2013-05-22 06:30:00,
2013-05-22 02:36:00,61.2,60.3,29.80,SE,139,0.0,8.0,97,0.05,,,0.98,Wunderground v.1.15,2013-05-22 06:36:00,
2013-05-22 02:42:00,61.2,60.3,29.81,WSW,249,1.0,8.0,97,0.00,,,0.98,Wunderground v.1.15,2013-05-22 06:42:00,
2013-05-22 02:48:00,61.3,60.4,29.81,WSW,255,1.0,8.0,97,0.00,,,0.98,Wunderground v.1.15,2013-05-22 06:48:00,
2013-05-22 02:54:00,61.3,60.4,29.80,SSW,203,1.0,8.0,97,0.26,,,1.01,Wunderground v.1.15,2013-05-22 06:54:00,
2013-05-22 03:00:00,61.2,60.3,29.79,SE,131,1.0,8.0,97,0.08,,,1.02,Wunderground v.1.15,2013-05-22 07:00:00,
2013-05-22 03:06:00,61.3,60.4,29.79,SSE,163,1.0,8.0,97,0.13,,,1.03,Wunderground v.1.15,2013-05-22 07:06:00,
2013-05-22 03:11:00,61.3,60.4,29.79,SSE,163,0.0,8.0,97,0.08,,,1.03,Wunderground v.1.15,2013-05-22 07:11:00,
2013-05-22 03:17:00,61.1,60.2,29.79,SSE,165,0.0,8.0,97,0.04,,,1.03,Wunderground v.1.15,2013-05-22 07:17:00,
2013-05-22 03:23:00,61.1,60.2,29.79,SSE,165,0.0,8.0,97,0.00,,,1.03,Wunderground v.1.15,2013-05-22 07:23:00,
2013-05-22 03:29:00,61.1,60.2,29.80,SW,227,1.0,8.0,97,0.00,,,1.04,Wunderground v.1.15,2013-05-22 07:29:00,
2013-05-22 03:34:00,61.1,60.2,29.80,WNW,302,1.0,8.0,97,0.00,,,1.04,Wunderground v.1.15,2013-05-22 07:34:00,
2013-05-22 03:40:00,61.1,60.2,29.80,NW,313,1.0,1.0,97,0.25,,,1.09,Wunderground v.1.15,2013-05-22 07:40:00,
2013-05-22 03:46:00,61.2,60.3,29.81,SSW,208,1.0,8.0,97,0.09,,,1.10,Wunderground v.1.15,2013-05-22 07:46:00,
2013-05-22 03:52:00,61.2,60.3,29.81,SSE,155,0.0,8.0,97,0.49,,,1.15,Wunderground v.1.15,2013-05-22 07:52:00,
2013-05-22 03:58:00,61.2,60.3,29.80,West,278,1.0,8.0,97,0.32,,,1.17,Wunderground v.1.15,2013-05-22 07:58:00,
2013-05-22 04:04:00,61.4,60.8,29.79,WNW,285,1.0,8.0,98,0.25,,,1.21,Wunderground v.1.15,2013-05-22 08:04:00,
2013-05-22 04:10:00,61.4,60.8,29.80,South,173,0.0,8.0,98,0.08,,,1.22,Wunderground v.1.15,2013-05-22 08:10:00,
2013-05-22 04:15:00,61.4,60.8,29.80,SW,226,1.0,8.0,98,0.08,,,1.22,Wunderground v.1.15,2013-05-22 08:15:00,
2013-05-22 04:21:00,61.3,60.7,29.80,SSE,147,1.0,8.0,98,0.05,,,1.22,Wunderground v.1.15,2013-05-22 08:21:00,
2013-05-22 04:27:00,61.3,60.7,29.80,SW,230,1.0,8.0,98,0.00,,,1.22,Wunderground v.1.15,2013-05-22 08:27:00,
2013-05-22 04:33:00,61.3,60.7,29.80,WSW,248,1.0,8.0,98,0.00,,,1.22,Wunderground v.1.15,2013-05-22 08:33:00,
2013-05-22 04:39:00,61.3,60.7,29.80,NW,324,1.0,8.0,98,0.00,,,1.23,Wunderground v.1.15,2013-05-22 08:39:00,
2013-05-22 04:45:00,61.3,60.7,29.80,WNW,285,1.0,8.0,98,0.00,,,1.23,Wunderground v.1.15,2013-05-22 08:45:00,
2013-05-22 04:51:00,61.3,60.7,29.80,WNW,287,0.0,8.0,98,0.00,,,1.23,Wunderground v.1.15,2013-05-22 08:51:00,
2013-05-22 04:56:00,61.2,60.6,29.80,SSW,196,1.0,8.0,98,0.00,,,1.23,Wunderground v.1.15,2013-05-22 08:56:00,
2013-05-22 05:01:00,61.1,60.5,29.80,SSW,195,0.0,8.0,98,0.00,,,1.23,Wunderground v.1.15,2013-05-22 09:01:00,
2013-05-22 05:07:00,60.9,60.3,29.80,SSW,195,0.0,8.0,98,0.00,,,1.23,Wunderground v.1.15,2013-05-22 09:07:00,
2013-05-22 05:13:00,60.9,60.3,29.80,SE,135,0.0,8.0,98,0.00,,,1.23,Wunderground v.1.15,2013-05-22 09:13:00,
2013-05-22 05:19:00,61.0,60.4,29.80,East,100,0.0,8.0,98,0.00,,,1.23,Wunderground v.1.15,2013-05-22 09:19:00,
2013-05-22 05:24:00,60.9,60.3,29.80,ESE,102,0.0,8.0,98,0.00,,,1.23,Wunderground v.1.15,2013-05-22 09:24:00,
2013-05-22 05:30:00,60.9,60.3,29.80,ESE,102,0.0,8.0,98,0.00,,,1.23,Wunderground v.1.15,2013-05-22 09:30:00,
2013-05-22 05:36:00,60.8,60.2,29.80,East,101,0.0,8.0,98,0.00,,,1.23,Wunderground v.1.15,2013-05-22 09:36:00,
2013-05-22 05:42:00,60.8,60.2,29.80,East,101,0.0,8.0,98,0.00,,,1.23,Wunderground v.1.15,2013-05-22 09:42:00,
2013-05-22 05:48:00,60.7,60.1,29.80,East,100,0.0,8.0,98,0.00,,,1.23,Wunderground v.1.15,2013-05-22 09:48:00,
2013-05-22 05:54:00,60.5,59.9,29.81,East,100,0.0,8.0,98,0.00,,,1.23,Wunderground v.1.15,2013-05-22 09:54:00,
2013-05-22 06:00:00,60.4,59.8,29.81,SSW,210,1.0,8.0,98,0.00,,,1.23,Wunderground v.1.15,2013-05-22 10:00:00,
2013-05-22 06:06:00,60.4,59.8,29.81,SSW,211,1.0,8.0,98,0.00,,,1.23,Wunderground v.1.15,2013-05-22 10:06:00,
2013-05-22 06:12:00,60.5,59.9,29.80,SSW,211,0.0,8.0,98,0.00,,,1.24,Wunderground v.1.15,2013-05-22 10:12:00,
2013-05-22 06:18:00,60.8,60.2,29.80,SSW,211,0.0,8.0,98,0.00,,,1.24,Wunderground v.1.15,2013-05-22 10:18:00,
2013-05-22 06:23:00,60.7,60.1,29.80,SSW,211,0.0,8.0,98,0.00,,,1.24,Wunderground v.1.15,2013-05-22 10:23:00,
2013-05-22 06:29:00,60.4,59.8,29.80,NE,47,0.0,8.0,98,0.00,,,1.24,Wunderground v.1.15,2013-05-22 10:29:00,
2013-05-22 06:35:00,60.4,59.8,29.81,NNE,27,0.0,8.0,98,0.00,,,1.24,Wunderground v.1.15,2013-05-22 10:35:00,
2013-05-22 06:41:00,60.5,59.9,29.81,NNE,25,0.0,8.0,98,0.00,,,1.24,Wunderground v.1.15,2013-05-22 10:41:00,
2013-05-22 06:47:00,60.7,60.1,29.81,NNE,25,0.0,8.0,98,0.00,,,1.24,Wunderground v.1.15,2013-05-22 10:47:00,
2013-05-22 06:52:00,60.8,60.2,29.81,NNE,25,0.0,8.0,98,0.00,,,1.24,Wunderground v.1.15,2013-05-22 10:52:00,
2013-05-22 06:58:00,61.1,60.5,29.81,NNE,26,0.0,8.0,98,0.00,,,1.24,Wunderground v.1.15,2013-05-22 10:58:00,
2013-05-22 07:04:00,61.4,60.8,29.81,NNE,26,0.0,8.0,98,0.00,,,1.24,Wunderground v.1.15,2013-05-22 11:04:00,
2013-05-22 07:09:00,61.9,61.3,29.81,NNE,25,0.0,8.0,98,0.00,,,1.24,Wunderground v.1.15,2013-05-22 11:09:00,
2013-05-22 07:15:00,62.6,62.0,29.81,NNE,25,0.0,8.0,98,0.00,,,1.24,Wunderground v.1.15,2013-05-22 11:15:00,
2013-05-22 07:21:00,63.2,62.6,29.81,NNE,26,0.0,8.0,98,0.00,,,1.24,Wunderground v.1.15,2013-05-22 11:21:00,
2013-05-22 07:27:00,63.1,62.5,29.81,NNE,26,0.0,8.0,98,0.00,,,1.24,Wunderground v.1.15,2013-05-22 11:27:00,
2013-05-22 07:33:00,63.3,62.7,29.81,NNE,26,1.0,8.0,98,0.00,,,1.24,Wunderground v.1.15,2013-05-22 11:33:00,
2013-05-22 07:39:00,63.8,63.2,29.81,NNE,26,0.0,8.0,98,0.00,,,1.24,Wunderground v.1.15,2013-05-22 11:39:00,
2013-05-22 07:44:00,64.1,63.5,29.81,NNE,25,0.0,8.0,98,0.00,,,1.24,Wunderground v.1.15,2013-05-22 11:44:00,
2013-05-22 07:50:00,64.9,64.3,29.81,NNE,25,0.0,8.0,98,0.00,,,1.24,Wunderground v.1.15,2013-05-22 11:50:00,
2013-05-22 08:17:00,67.6,67.0,29.81,North,7,0.0,8.0,98,0.00,,,1.24,Wunderground v.1.15,2013-05-22 12:17:00,
2013-05-22 08:23:00,68.0,67.4,29.81,SSW,206,0.0,8.0,98,0.00,,,1.24,Wunderground v.1.15,2013-05-22 12:23:00,
2013-05-22 08:28:00,68.3,67.7,29.81,SSW,205,0.0,8.0,98,0.00,,,1.24,Wunderground v.1.15,2013-05-22 12:28:00,
2013-05-22 08:33:00,68.5,67.6,29.81,WSW,250,0.0,8.0,97,0.00,,,1.24,Wunderground v.1.15,2013-05-22 12:33:00,
2013-05-22 08:38:00,68.7,67.8,29.81,NW,321,1.0,8.0,97,0.00,,,1.24,Wunderground v.1.15,2013-05-22 12:38:00,
2013-05-22 08:44:00,69.2,68.3,29.81,SE,145,1.0,8.0,97,0.00,,,1.24,Wunderground v.1.15,2013-05-22 12:44:00,
2013-05-22 08:49:00,69.6,68.4,29.81,WSW,240,1.0,8.0,96,0.00,,,1.24,Wunderground v.1.15,2013-05-22 12:49:00,
2013-05-22 08:54:00,69.3,67.8,29.81,WSW,246,1.0,8.0,95,0.00,,,1.24,Wunderground v.1.15,2013-05-22 12:54:00,
2013-05-22 08:59:00,69.4,67.9,29.81,ESE,117,1.0,8.0,95,0.00,,,1.24,Wunderground v.1.15,2013-05-22 12:59:00,
2013-05-22 09:04:00,69.5,68.0,29.81,SW,215,1.0,8.0,95,0.00,,,1.24,Wunderground v.1.15,2013-05-22 13:04:00,
2013-05-22 09:10:00,69.4,67.6,29.81,NW,307,1.0,1.0,94,0.00,,,1.24,Wunderground v.1.15,2013-05-22 13:10:00,
2013-05-22 09:15:00,69.7,68.2,29.81,West,259,1.0,8.0,95,0.00,,,1.24,Wunderground v.1.15,2013-05-22 13:15:00,
2013-05-22 09:20:00,70.0,68.2,29.81,WSW,253,1.0,1.0,94,0.00,,,1.24,Wunderground v.1.15,2013-05-22 13:20:00,
2013-05-22 09:25:00,70.3,68.5,29.81,SE,137,1.0,8.0,94,0.00,,,1.24,Wunderground v.1.15,2013-05-22 13:25:00,
2013-05-22 09:30:00,70.7,68.9,29.81,SSW,201,1.0,8.0,94,0.00,,,1.24,Wunderground v.1.15,2013-05-22 13:30:00,
2013-05-22 09:36:00,70.9,68.8,29.81,SSW,204,1.0,8.0,93,0.00,,,1.24,Wunderground v.1.15,2013-05-22 13:36:00,
2013-05-22 09:41:00,71.1,69.0,29.81,NE,41,1.0,8.0,93,0.00,,,1.24,Wunderground v.1.15,2013-05-22 13:41:00,
2013-05-22 09:46:00,71.6,69.2,29.81,WSW,245,1.0,8.0,92,0.00,,,1.24,Wunderground v.1.15,2013-05-22 13:46:00,
2013-05-22 09:51:00,71.9,68.8,29.81,SSW,210,2.0,8.0,90,0.00,,,1.24,Wunderground v.1.15,2013-05-22 13:51:00,
2013-05-22 09:56:00,72.5,68.7,29.81,West,270,1.0,8.0,88,0.00,,,1.24,Wunderground v.1.15,2013-05-22 13:56:00,
2013-05-22 10:02:00,72.6,68.5,29.81,South,190,2.0,8.0,87,0.00,,,1.24,Wunderground v.1.15,2013-05-22 14:02:00,
2013-05-22 10:07:00,72.7,68.6,29.81,WNW,283,2.0,8.0,87,0.00,,,1.24,Wunderground v.1.15,2013-05-22 14:07:00,
2013-05-22 10:12:00,73.1,68.7,29.81,WSW,250,2.0,8.0,86,0.00,,,1.24,Wunderground v.1.15,2013-05-22 14:12:00,
2013-05-22 10:17:00,73.5,68.7,29.81,WSW,238,1.0,8.0,85,0.00,,,1.24,Wunderground v.1.15,2013-05-22 14:17:00,
2013-05-22 10:22:00,73.4,68.6,29.81,WSW,238,1.0,8.0,85,0.00,,,1.24,Wunderground v.1.15,2013-05-22 14:22:00,
2013-05-22 10:28:00,73.2,68.4,29.81,West,262,2.0,8.0,85,0.00,,,1.24,Wunderground v.1.15,2013-05-22 14:28:00,
2013-05-22 10:33:00,73.2,68.4,29.81,ESE,114,2.0,8.0,85,0.00,,,1.24,Wunderground v.1.15,2013-05-22 14:33:00,
2013-05-22 10:38:00,73.6,69.2,29.81,SE,136,1.0,8.0,86,0.00,,,1.24,Wunderground v.1.15,2013-05-22 14:38:00,
2013-05-22 10:43:00,74.6,69.8,29.81,SE,136,1.0,8.0,85,0.00,,,1.24,Wunderground v.1.15,2013-05-22 14:43:00,
2013-05-22 10:48:00,75.1,69.6,29.81,WSW,257,2.0,8.0,83,0.00,,,1.24,Wunderground v.1.15,2013-05-22 14:48:00,
2013-05-22 10:54:00,75.4,69.2,29.81,West,259,3.0,8.0,81,0.00,,,1.24,Wunderground v.1.15,2013-05-22 14:54:00,
2013-05-22 10:59:00,75.4,69.9,29.81,SW,218,3.0,8.0,83,0.00,,,1.24,Wunderground v.1.15,2013-05-22 14:59:00,
2013-05-22 11:04:00,75.3,68.7,29.80,SW,216,3.0,8.0,80,0.00,,,1.24,Wunderground v.1.15,2013-05-22 15:04:00,
2013-05-22 11:09:00,74.9,69.0,29.81,WNW,297,3.0,8.0,82,0.00,,,1.24,Wunderground v.1.15,2013-05-22 15:09:00,
2013-05-22 11:14:00,75.1,69.2,29.81,WNW,284,2.0,8.0,82,0.00,,,1.24,Wunderground v.1.15,2013-05-22 15:14:00,
2013-05-22 11:20:00,75.9,69.3,29.80,SW,232,2.0,8.0,80,0.00,,,1.24,Wunderground v.1.15,2013-05-22 15:20:00,
2013-05-22 11:25:00,75.4,68.8,29.80,North,358,3.0,8.0,80,0.00,,,1.24,Wunderground v.1.15,2013-05-22 15:25:00,
2013-05-22 11:30:00,75.5,69.6,29.80,SSE,153,2.0,8.0,82,0.00,,,1.24,Wunderground v.1.15,2013-05-22 15:30:00,
2013-05-22 11:35:00,76.3,70.4,29.80,NNW,330,2.0,8.0,82,0.00,,,1.24,Wunderground v.1.15,2013-05-22 15:35:00,
2013-05-22 11:40:00,76.9,69.9,29.80,WSW,243,3.0,8.0,79,0.00,,,1.24,Wunderground v.1.15,2013-05-22 15:40:00,
2013-05-22 11:45:00,77.0,69.2,29.80,SW,216,3.0,8.0,77,0.00,,,1.24,Wunderground v.1.15,2013-05-22 15:45:00,
2013-05-22 11:50:00,76.7,68.2,29.80,SE,136,3.0,8.0,75,0.00,,,1.24,Wunderground v.1.15,2013-05-22 15:50:00,
2013-05-22 11:55:00,76.5,68.7,29.80,South,179,3.0,8.0,77,0.00,,,1.24,Wunderground v.1.15,2013-05-22 15:55:00,
2013-05-22 12:00:00,76.9,68.8,29.80,South,187,3.0,3.0,76,0.00,,,1.24,Wunderground v.1.15,2013-05-22 16:00:00,
2013-05-22 12:05:00,77.6,69.4,29.80,SSW,205,3.0,8.0,76,0.00,,,1.24,Wunderground v.1.15,2013-05-22 16:05:00,
2013-05-22 12:10:00,78.6,70.0,29.80,SSW,207,3.0,8.0,75,0.00,,,1.24,Wunderground v.1.15,2013-05-22 16:10:00,
2013-05-22 12:16:00,78.5,69.1,29.80,SE,146,3.0,8.0,73,0.00,,,1.24,Wunderground v.1.15,2013-05-22 16:16:00,
2013-05-22 12:21:00,79.0,70.4,29.80,SSW,196,2.0,8.0,75,0.00,,,1.24,Wunderground v.1.15,2013-05-22 16:21:00,
2013-05-22 12:26:00,79.3,68.7,29.79,SE,128,2.0,8.0,70,0.00,,,1.24,Wunderground v.1.15,2013-05-22 16:26:00,
2013-05-22 12:31:00,79.0,68.4,29.79,NE,49,2.0,8.0,70,0.00,,,1.24,Wunderground v.1.15,2013-05-22 16:31:00,
2013-05-22 12:36:00,79.1,69.3,29.78,South,181,2.0,8.0,72,0.00,,,1.24,Wunderground v.1.15,2013-05-22 16:36:00,
2013-05-22 12:42:00,79.9,70.9,29.78,SW,216,2.0,8.0,74,0.00,,,1.24,Wunderground v.1.15,2013-05-22 16:42:00,
2013-05-22 12:47:00,80.0,66.7,29.78,West,279,2.0,8.0,64,0.00,,,1.24,Wunderground v.1.15,2013-05-22 16:47:00,
2013-05-22 12:52:00,80.4,68.4,29.78,SE,146,3.0,8.0,67,0.00,,,1.24,Wunderground v.1.15,2013-05-22 16:52:00,
2013-05-22 12:57:00,80.6,67.3,29.78,WSW,257,3.0,8.0,64,0.00,,,1.24,Wunderground v.1.15,2013-05-22 16:57:00,
2013-05-22 13:02:00,80.6,66.8,29.77,West,259,2.0,8.0,63,0.00,,,1.24,Wunderground v.1.15,2013-05-22 17:02:00,
2013-05-22 13:08:00,80.2,68.2,29.77,SW,229,2.0,8.0,67,0.00,,,1.24,Wunderground v.1.15,2013-05-22 17:08:00,
2013-05-22 13:13:00,79.4,66.6,29.77,ESE,108,2.0,8.0,65,0.00,,,1.24,Wunderground v.1.15,2013-05-22 17:13:00,
2013-05-22 13:18:00,78.5,67.5,29.77,SSE,150,2.0,8.0,69,0.00,,,1.24,Wunderground v.1.15,2013-05-22 17:18:00,
2013-05-22 13:23:00,77.8,66.4,29.77,ESE,121,1.0,8.0,68,0.00,,,1.24,Wunderground v.1.15,2013-05-22 17:23:00,
2013-05-22 13:28:00,76.8,65.9,29.78,SSW,203,1.0,8.0,69,0.00,,,1.24,Wunderground v.1.15,2013-05-22 17:28:00,
2013-05-22 13:34:00,75.6,65.5,29.78,ENE,58,2.0,9.0,71,0.00,,,1.24,Wunderground v.1.15,2013-05-22 17:34:00,
2013-05-22 13:40:00,74.4,66.7,29.78,WSW,250,2.0,2.0,77,0.00,,,1.24,Wunderground v.1.15,2013-05-22 17:40:00,
2013-05-22 13:46:00,71.4,64.9,29.80,South,169,3.0,9.0,80,1.07,,,1.44,Wunderground v.1.15,2013-05-22 17:46:00,
2013-05-22 13:52:00,68.5,63.5,29.81,West,277,3.0,9.0,84,0.10,,,1.45,Wunderground v.1.15,2013-05-22 17:52:00,
2013-05-22 13:57:00,67.5,64.1,29.83,NW,323,2.0,9.0,89,0.38,,,1.48,Wunderground v.1.15,2013-05-22 17:57:00,
2013-05-22 14:03:00,66.4,63.4,29.82,WSW,255,3.0,9.0,90,1.11,,,1.56,Wunderground v.1.15,2013-05-22 18:03:00,
2013-05-22 14:09:00,65.4,63.0,29.82,North,352,3.0,9.0,92,0.17,,,1.59,Wunderground v.1.15,2013-05-22 18:09:00,
2013-05-22 14:14:00,64.6,62.5,29.82,West,278,2.0,9.0,93,2.44,,,1.62,Wunderground v.1.15,2013-05-22 18:14:00,
2013-05-22 14:20:00,63.9,61.8,29.82,East,94,2.0,2.0,93,0.24,,,1.73,Wunderground v.1.15,2013-05-22 18:20:00,
2013-05-22 14:26:00,63.5,61.7,29.82,ENE,71,1.0,9.0,94,0.07,,,1.73,Wunderground v.1.15,2013-05-22 18:26:00,
2013-05-22 14:31:00,63.4,61.9,29.82,ENE,70,0.0,9.0,95,0.05,,,1.73,Wunderground v.1.15,2013-05-22 18:31:00,
2013-05-22 14:37:00,63.4,61.9,29.81,ENE,71,0.0,9.0,95,0.00,,,1.73,Wunderground v.1.15,2013-05-22 18:37:00,
2013-05-22 14:43:00,63.6,62.1,29.80,ENE,71,0.0,9.0,95,0.00,,,1.73,Wunderground v.1.15,2013-05-22 18:43:00,
2013-05-22 14:49:00,63.9,62.4,29.79,ENE,70,0.0,9.0,95,0.00,,,1.73,Wunderground v.1.15,2013-05-22 18:49:00,
2013-05-22 14:55:00,64.3,63.1,29.79,ENE,71,0.0,9.0,96,0.00,,,1.73,Wunderground v.1.15,2013-05-22 18:55:00,
2013-05-22 15:01:00,65.5,64.3,29.79,SSW,209,0.0,9.0,96,0.00,,,1.73,Wunderground v.1.15,2013-05-22 19:01:00,
2013-05-22 15:07:00,67.0,66.1,29.79,SW,224,0.0,9.0,97,0.00,,,1.73,Wunderground v.1.15,2013-05-22 19:07:00,
2013-05-22 15:13:00,68.1,66.9,29.79,WNW,298,1.0,9.0,96,0.00,,,1.73,Wunderground v.1.15,2013-05-22 19:13:00,
2013-05-22 15:18:00,68.8,67.0,29.79,NW,305,1.0,9.0,94,0.00,,,1.73,Wunderground v.1.15,2013-05-22 19:18:00,
2013-05-22 15:24:00,69.6,66.9,29.79,SW,225,1.0,9.0,91,0.00,,,1.73,Wunderground v.1.15,2013-05-22 19:24:00,
2013-05-22 15:30:00,71.4,69.0,29.79,WNW,290,1.0,1.0,92,0.00,,,1.73,Wunderground v.1.15,2013-05-22 19:30:00,
2013-05-22 15:36:00,72.5,68.7,29.79,West,270,1.0,9.0,88,0.00,,,1.73,Wunderground v.1.15,2013-05-22 19:36:00,
2013-05-22 15:41:00,73.0,68.6,29.78,SW,233,1.0,9.0,86,0.00,,,1.73,Wunderground v.1.15,2013-05-22 19:41:00,
2013-05-22 15:47:00,74.1,69.0,29.78,West,281,1.0,9.0,84,0.00,,,1.73,Wunderground v.1.15,2013-05-22 19:47:00,
2013-05-22 15:53:00,74.8,68.2,29.78,SSW,212,1.0,9.0,80,0.00,,,1.73,Wunderground v.1.15,2013-05-22 19:53:00,
2013-05-22 15:59:00,75.5,70.0,29.78,SE,143,1.0,9.0,83,0.00,,,1.73,Wunderground v.1.15,2013-05-22 19:59:00,
2013-05-22 16:05:00,75.8,68.8,29.78,WSW,248,2.0,9.0,79,0.00,,,1.73,Wunderground v.1.15,2013-05-22 20:05:00,
2013-05-22 16:10:00,76.2,68.5,29.78,ESE,120,2.0,9.0,77,0.00,,,1.73,Wunderground v.1.15,2013-05-22 20:10:00,
2013-05-22 16:16:00,76.3,68.9,29.77,SE,139,1.0,9.0,78,0.00,,,1.73,Wunderground v.1.15,2013-05-22 20:16:00,
2013-05-22 16:22:00,77.2,69.4,29.77,SW,229,1.0,9.0,77,0.00,,,1.73,Wunderground v.1.15,2013-05-22 20:22:00,
2013-05-22 16:28:00,77.8,70.4,29.77,SSW,208,1.0,9.0,78,0.00,,,1.73,Wunderground v.1.15,2013-05-22 20:28:00,
2013-05-22 16:33:00,78.1,71.1,29.77,SE,124,1.0,9.0,79,0.00,,,1.73,Wunderground v.1.15,2013-05-22 20:33:00,
2013-05-22 16:39:00,77.7,70.3,29.77,SE,136,2.0,9.0,78,0.00,,,1.73,Wunderground v.1.15,2013-05-22 20:39:00,
2013-05-22 16:45:00,78.0,69.4,29.77,West,271,1.0,9.0,75,0.00,,,1.73,Wunderground v.1.15,2013-05-22 20:45:00,
2013-05-22 16:50:00,78.1,68.7,29.77,SW,226,1.0,9.0,73,0.00,,,1.73,Wunderground v.1.15,2013-05-22 20:50:00,
2013-05-22 16:56:00,78.3,68.1,29.76,ESE,122,1.0,9.0,71,0.00,,,1.73,Wunderground v.1.15,2013-05-22 20:56:00,
2013-05-22 17:02:00,78.9,69.1,29.76,SE,132,1.0,9.0,72,0.00,,,1.73,Wunderground v.1.15,2013-05-22 21:02:00,
2013-05-22 17:08:00,79.0,70.4,29.76,WNW,287,1.0,9.0,75,0.00,,,1.73,Wunderground v.1.15,2013-05-22 21:08:00,
2013-05-22 17:13:00,79.0,68.8,29.76,SE,140,2.0,9.0,71,0.00,,,1.73,Wunderground v.1.15,2013-05-22 21:13:00,
2013-05-22 17:19:00,79.3,69.1,29.76,WNW,285,1.0,9.0,71,0.00,,,1.73,Wunderground v.1.15,2013-05-22 21:19:00,
2013-05-22 17:25:00,79.6,68.5,29.76,ENE,72,1.0,9.0,69,0.00,,,1.73,Wunderground v.1.15,2013-05-22 21:25:00,
2013-05-22 17:30:00,79.7,69.0,29.75,SSW,212,1.0,9.0,70,0.00,,,1.73,Wunderground v.1.15,2013-05-22 21:30:00,
2013-05-22 17:36:00,79.9,68.0,29.75,West,278,1.0,9.0,67,0.00,,,1.73,Wunderground v.1.15,2013-05-22 21:36:00,
2013-05-22 17:41:00,79.9,68.0,29.75,SW,230,1.0,9.0,67,0.00,,,1.73,Wunderground v.1.15,2013-05-22 21:41:00,
2013-05-22 17:47:00,79.8,67.9,29.75,WNW,287,1.0,9.0,67,0.00,,,1.73,Wunderground v.1.15,2013-05-22 21:47:00,
2013-05-22 17:53:00,79.7,67.8,29.75,WSW,256,1.0,9.0,67,0.00,,,1.73,Wunderground v.1.15,2013-05-22 21:53:00,
2013-05-22 17:59:00,80.0,69.3,29.75,SE,131,1.0,9.0,70,0.00,,,1.73,Wunderground v.1.15,2013-05-22 21:59:00,
2013-05-22 18:05:00,80.1,69.0,29.75,SSW,205,1.0,9.0,69,0.00,,,1.73,Wunderground v.1.15,2013-05-22 22:05:00,
2013-05-22 18:10:00,79.2,68.1,29.75,WNW,293,2.0,2.0,69,0.00,,,1.73,Wunderground v.1.15,2013-05-22 22:10:00,
2013-05-22 18:16:00,77.8,67.6,29.75,SW,219,1.0,9.0,71,0.00,,,1.73,Wunderground v.1.15,2013-05-22 22:16:00,
2013-05-22 18:22:00,76.8,67.5,29.75,SSW,193,1.0,9.0,73,0.00,,,1.73,Wunderground v.1.15,2013-05-22 22:22:00,
2013-05-22 18:28:00,76.5,67.6,29.75,South,191,0.0,9.0,74,0.00,,,1.73,Wunderground v.1.15,2013-05-22 22:28:00,
2013-05-22 18:33:00,77.1,68.2,29.75,SW,218,0.0,9.0,74,0.00,,,1.73,Wunderground v.1.15,2013-05-22 22:33:00,
2013-05-22 18:39:00,76.8,68.7,29.75,WSW,257,0.0,9.0,76,0.00,,,1.73,Wunderground v.1.15,2013-05-22 22:39:00,
2013-05-22 18:45:00,76.4,68.3,29.75,WSW,257,0.0,9.0,76,0.00,,,1.73,Wunderground v.1.15,2013-05-22 22:45:00,
2013-05-22 18:51:00,75.9,68.2,29.75,WSW,256,0.0,9.0,77,0.00,,,1.73,Wunderground v.1.15,2013-05-22 22:51:00,
2013-05-22 18:57:00,75.3,67.6,29.75,WSW,255,0.0,9.0,77,0.00,,,1.73,Wunderground v.1.15,2013-05-22 22:57:00,
2013-05-22 19:03:00,74.6,67.3,29.75,WSW,252,0.0,9.0,78,0.00,,,1.73,Wunderground v.1.15,2013-05-22 23:03:00,
2013-05-22 19:09:00,74.1,67.2,29.75,SW,214,0.0,9.0,79,0.00,,,1.73,Wunderground v.1.15,2013-05-22 23:09:00,
2013-05-22 19:14:00,73.8,66.9,29.75,SW,214,0.0,9.0,79,0.00,,,1.73,Wunderground v.1.15,2013-05-22 23:14:00,
2013-05-22 19:20:00,73.6,66.7,29.75,SW,215,0.0,9.0,79,0.00,,,1.73,Wunderground v.1.15,2013-05-22 23:20:00,
2013-05-22 19:26:00,73.6,67.4,29.75,SW,217,0.0,9.0,81,0.00,,,1.73,Wunderground v.1.15,2013-05-22 23:26:00,
2013-05-22 19:32:00,73.5,67.3,29.75,SSW,194,0.0,9.0,81,0.00,,,1.73,Wunderground v.1.15,2013-05-22 23:32:00,
2013-05-22 19:38:00,73.7,67.5,29.75,SSE,156,1.0,9.0,81,0.00,,,1.73,Wunderground v.1.15,2013-05-22 23:38:00,
2013-05-22 19:43:00,73.6,67.8,29.75,SE,145,1.0,9.0,82,0.00,,,1.73,Wunderground v.1.15,2013-05-22 23:43:00,
2013-05-22 19:49:00,73.3,67.5,29.75,SSE,149,0.0,9.0,82,0.00,,,1.73,Wunderground v.1.15,2013-05-22 23:49:00,
2013-05-22 19:55:00,72.9,67.4,29.75,SE,134,1.0,9.0,83,0.00,,,1.73,Wunderground v.1.15,2013-05-22 23:55:00,
2013-05-22 20:01:00,72.5,67.4,29.75,WSW,252,1.0,9.0,84,0.00,,,1.73,Wunderground v.1.15,2013-05-23 00:01:00,
2013-05-22 20:07:00,72.6,67.5,29.75,WSW,250,1.0,9.0,84,0.00,,,1.73,Wunderground v.1.15,2013-05-23 00:07:00,
2013-05-22 20:13:00,72.7,67.2,29.75,NNE,13,2.0,9.0,83,0.00,,,1.73,Wunderground v.1.15,2013-05-23 00:13:00,
2013-05-22 20:18:00,72.7,67.6,29.75,SW,228,2.0,9.0,84,0.00,,,1.73,Wunderground v.1.15,2013-05-23 00:18:00,
2013-05-22 20:24:00,72.3,67.2,29.75,SSW,212,1.0,9.0,84,0.00,,,1.73,Wunderground v.1.15,2013-05-23 00:24:00,
2013-05-22 20:29:00,72.1,67.3,29.75,East,101,2.0,9.0,85,0.00,,,1.73,Wunderground v.1.15,2013-05-23 00:29:00,
2013-05-22 20:35:00,72.2,67.1,29.75,WSW,248,2.0,9.0,84,0.00,,,1.73,Wunderground v.1.15,2013-05-23 00:35:00,
2013-05-22 20:41:00,72.0,67.2,29.76,SW,215,1.0,9.0,85,0.00,,,1.73,Wunderground v.1.15,2013-05-23 00:41:00,
2013-05-22 20:47:00,71.9,67.1,29.76,SW,231,1.0,9.0,85,0.00,,,1.73,Wunderground v.1.15,2013-05-23 00:47:00,
2013-05-22 20:53:00,72.0,66.9,29.75,SSW,211,2.0,9.0,84,0.00,,,1.73,Wunderground v.1.15,2013-05-23 00:53:00,
2013-05-22 20:59:00,71.9,66.8,29.76,South,169,2.0,9.0,84,0.00,,,1.73,Wunderground v.1.15,2013-05-23 00:59:00,
2013-05-22 21:05:00,72.0,66.6,29.76,NE,39,2.0,9.0,83,0.00,,,1.73,Wunderground v.1.15,2013-05-23 01:05:00,
2013-05-22 21:11:00,72.2,66.7,29.76,SE,139,3.0,9.0,83,0.00,,,1.73,Wunderground v.1.15,2013-05-23 01:11:00,
2013-05-22 21:16:00,72.1,66.6,29.76,SSW,210,2.0,9.0,83,0.00,,,1.73,Wunderground v.1.15,2013-05-23 01:16:00,
2013-05-22 21:22:00,72.1,66.6,29.77,SE,146,2.0,9.0,83,0.00,,,1.73,Wunderground v.1.15,2013-05-23 01:22:00,
2013-05-22 21:28:00,72.0,66.6,29.77,SSE,165,2.0,9.0,83,0.00,,,1.73,Wunderground v.1.15,2013-05-23 01:28:00,
2013-05-22 21:34:00,72.2,66.4,29.77,SE,139,3.0,9.0,82,0.00,,,1.73,Wunderground v.1.15,2013-05-23 01:34:00,
2013-05-22 21:40:00,72.3,66.5,29.77,WSW,238,2.0,2.0,82,0.00,,,1.73,Wunderground v.1.15,2013-05-23 01:40:00,
2013-05-22 21:46:00,72.2,66.7,29.77,WSW,245,2.0,9.0,83,0.00,,,1.73,Wunderground v.1.15,2013-05-23 01:46:00,
2013-05-22 21:52:00,72.2,67.1,29.77,ESE,114,2.0,9.0,84,0.00,,,1.73,Wunderground v.1.15,2013-05-23 01:52:00,
2013-05-22 21:57:00,72.2,67.1,29.78,SW,217,2.0,9.0,84,0.00,,,1.73,Wunderground v.1.15,2013-05-23 01:57:00,
2013-05-22 22:03:00,72.1,67.0,29.78,SE,127,2.0,9.0,84,0.00,,,1.73,Wunderground v.1.15,2013-05-23 02:03:00,
2013-05-22 22:09:00,72.1,67.0,29.78,SE,145,2.0,9.0,84,0.00,,,1.73,Wunderground v.1.15,2013-05-23 02:09:00,
2013-05-22 22:15:00,72.4,67.3,29.77,NNE,18,3.0,9.0,84,0.00,,,1.73,Wunderground v.1.15,2013-05-23 02:15:00,
2013-05-22 22:21:00,72.9,67.8,29.77,West,260,4.0,9.0,84,0.00,,,1.73,Wunderground v.1.15,2013-05-23 02:21:00,
2013-05-22 22:27:00,73.0,67.5,29.77,SW,222,4.0,9.0,83,0.00,,,1.73,Wunderground v.1.15,2013-05-23 02:27:00,
2013-05-22 22:33:00,73.1,67.6,29.77,SSE,165,4.0,9.0,83,0.00,,,1.73,Wunderground v.1.15,2013-05-23 02:33:00,
2013-05-22 22:38:00,73.3,67.5,29.77,ESE,114,4.0,9.0,82,0.00,,,1.73,Wunderground v.1.15,2013-05-23 02:38:00,
2013-05-22 22:44:00,73.4,67.6,29.77,West,259,4.0,9.0,82,0.00,,,1.73,Wunderground v.1.15,2013-05-23 02:44:00,
2013-05-22 22:49:00,73.2,67.4,29.77,SW,225,4.0,9.0,82,0.00,,,1.73,Wunderground v.1.15,2013-05-23 02:49:00,
2013-05-22 22:55:00,73.3,67.5,29.77,SW,226,4.0,9.0,82,0.00,,,1.73,Wunderground v.1.15,2013-05-23 02:55:00,
2013-05-22 23:01:00,73.3,67.1,29.76,SW,231,4.0,9.0,81,0.00,,,1.73,Wunderground v.1.15,2013-05-23 03:01:00,
2013-05-22 23:06:00,73.4,67.2,29.77,South,188,5.0,9.0,81,0.00,,,1.73,Wunderground v.1.15,2013-05-23 03:06:00,
2013-05-22 23:12:00,73.4,67.2,29.78,SW,235,5.0,15.0,81,0.00,,,1.73,Wunderground v.1.15,2013-05-23 03:12:00,
2013-05-22 23:18:00,73.1,66.9,29.79,SSW,203,6.0,15.0,81,0.00,,,1.73,Wunderground v.1.15,2013-05-23 03:18:00,
2013-05-22 23:24:00,72.3,64.3,29.80,West,271,6.0,9.0,76,0.00,,,1.73,Wunderground v.1.15,2013-05-23 03:24:00,
2013-05-22 23:30:00,70.9,61.8,29.81,SW,231,7.0,11.0,73,0.00,,,1.73,Wunderground v.1.15,2013-05-23 03:30:00,
2013-05-22 23:35:00,69.8,61.1,29.81,WSW,257,6.0,11.0,74,0.00,,,1.73,Wunderground v.1.15,2013-05-23 03:35:00,
2013-05-22 23:41:00,68.9,61.0,29.81,WSW,255,5.0,9.0,76,0.00,,,1.73,Wunderground v.1.15,2013-05-23 03:41:00,
2013-05-22 23:47:00,68.4,60.9,29.81,NW,323,4.0,9.0,77,0.00,,,1.73,Wunderground v.1.15,2013-05-23 03:47:00,
2013-05-22 23:52:00,68.0,60.2,29.81,WSW,243,5.0,9.0,76,0.00,,,1.73,Wunderground v.1.15,2013-05-23 03:52:00,
2013-05-22 23:58:00,67.7,59.9,29.81,SSW,198,5.0,9.0,76,0.00,,,1.73,Wunderground v.1.15,2013-05-23 03:58:00,